Time;durP1;ratioP1;P1;durP2;ratioP2;P2;SDS_P1;SDS_P2;PMS_P1;PMS_P2;Temp;Humidity;BMP_temperature;BMP_pressure;BME280_temperature;BME280_humidity;BME280_pressure;Samples;Min_cycle;Max_cycle;Signal;HPM_P1;HPM_P2
2024/03/30 00:02:24;;;;;;;;;;;11.20;99.90;;;;;;6313159;22;19961;-86
2024/03/30 00:04:51;;;;;;;;;;;11.10;99.90;;;;;;6314071;22;20380;-86
2024/03/30 00:07:17;;;;;;;;;;;11.10;99.90;;;;;;6313351;22;19926;-86
2024/03/30 00:09:43;;;;;;;;;;;11.10;99.90;;;;;;6315526;22;19915;-86
2024/03/30 00:12:11;;;;;;;;;;;11.00;1.00;;;;;;6315125;22;20411;-86
2024/03/30 00:14:38;;;;;;;;;;;11.00;1.00;;;;;;6314435;22;19919;-87
2024/03/30 00:17:03;;;;;;;;;;;11.00;1.00;;;;;;6314186;22;19937;-87
2024/03/30 00:19:30;;;;;;;;;;;10.90;1.00;;;;;;6313169;22;20027;-87
2024/03/30 00:21:56;;;;;;;;;;;10.80;41.70;;;;;;6316425;22;19992;-87
2024/03/30 00:24:23;;;;;;;;;;;10.80;99.90;;;;;;6331195;22;19949;-87
2024/03/30 00:26:48;;;;;;;;;;;10.80;99.90;;;;;;6337115;22;19932;-87
2024/03/30 00:29:16;;;;;;;;;;;10.70;99.90;;;;;;6324250;22;19931;-87
2024/03/30 00:31:42;;;;;;;;;;;10.60;99.90;;;;;;6319986;22;19944;-87
2024/03/30 00:34:08;;;;;;;;;;;10.70;99.90;;;;;;6314184;22;20257;-87
2024/03/30 00:36:34;;;;;;;;;;;10.60;99.90;;;;;;6315769;22;20268;-87
2024/03/30 00:39:01;;;;;;;;;;;10.60;99.90;;;;;;6315057;22;19914;-88
2024/03/30 00:41:26;;;;;;;;;;;10.60;99.90;;;;;;6331951;22;19942;-87
2024/03/30 00:43:54;;;;;;;;;;;10.60;99.90;;;;;;6337633;22;19980;-87
2024/03/30 00:46:21;;;;;;;;;;;10.60;99.90;;;;;;6338442;22;19945;-84
2024/03/30 00:48:47;;;;;;;;;;;10.60;99.90;;;;;;6338855;22;19918;-83
2024/03/30 00:51:13;;;;;;;;;;;10.50;99.90;;;;;;6338665;22;19956;-87
2024/03/30 00:53:40;;;;;;;;;;;10.50;99.90;;;;;;6322905;22;19956;-86
2024/03/30 00:56:06;;;;;;;;;;;10.50;99.90;;;;;;6313817;22;19941;-86
2024/03/30 00:58:32;;;;;;;;;;;10.40;99.90;;;;;;6314994;22;19915;-87
2024/03/30 01:00:58;;;;;;;;;;;10.40;99.90;;;;;;6313635;22;19942;-87
2024/03/30 01:03:27;;;;;;;;;;;10.40;99.90;;;;;;6315947;22;19915;-87
2024/03/30 01:05:53;;;;;;;;;;;10.30;99.90;;;;;;6317914;22;19974;-87
2024/03/30 01:08:20;;;;;;;;;;;10.30;99.90;;;;;;6317381;22;19935;-86
2024/03/30 01:10:46;;;;;;;;;;;10.30;99.90;;;;;;6314476;22;19944;-86
2024/03/30 01:13:12;;;;;;;;;;;10.30;99.90;;;;;;6313177;22;20040;-86
2024/03/30 01:15:38;;;;;;;;;;;10.30;99.90;;;;;;6314071;22;19994;-86
2024/03/30 01:18:06;;;;;;;;;;;10.20;99.90;;;;;;6333886;22;19899;-86
2024/03/30 01:20:33;;;;;;;;;;;10.30;99.90;;;;;;6321299;22;19944;-86
2024/03/30 01:23:00;;;;;;;;;;;10.40;99.90;;;;;;6313253;22;19948;-86
2024/03/30 01:25:27;;;;;;;;;;;10.50;99.90;;;;;;6315641;22;19975;-86
2024/03/30 01:27:55;;;;;;;;;;;10.50;99.90;;;;;;6312922;22;19933;-86
2024/03/30 01:30:22;;;;;;;;;;;10.40;99.90;;;;;;6313121;22;19937;-86
2024/03/30 01:32:49;;;;;;;;;;;10.40;99.90;;;;;;6313641;22;20045;-86
2024/03/30 01:35:15;;;;;;;;;;;10.40;99.90;;;;;;6313594;22;19957;-86
2024/03/30 01:37:43;;;;;;;;;;;10.40;99.90;;;;;;6313023;22;19955;-86
2024/03/30 01:40:08;;;;;;;;;;;10.50;70.30;;;;;;6312004;22;20355;-86
2024/03/30 01:42:36;;;;;;;;;;;10.40;25.60;;;;;;6329419;22;19925;-84
2024/03/30 01:45:02;;;;;;;;;;;10.40;99.90;;;;;;6338045;22;19944;-85
2024/03/30 01:47:29;;;;;;;;;;;10.30;99.90;;;;;;6337940;22;19925;-84
2024/03/30 01:49:55;;;;;;;;;;;10.30;99.90;;;;;;6330254;22;19971;-86
2024/03/30 01:52:25;;;;;;;;;;;10.30;99.90;;;;;;6318595;22;19953;-86
2024/03/30 01:54:52;;;;;;;;;;;10.20;99.90;;;;;;6313953;22;19959;-87
2024/03/30 01:57:20;;;;;;;;;;;10.20;99.90;;;;;;6313441;22;19937;-87
2024/03/30 01:59:47;;;;;;;;;;;10.10;99.90;;;;;;6320195;22;20016;-86
2024/03/30 02:02:14;;;;;;;;;;;10.10;99.90;;;;;;6312038;22;19957;-86
2024/03/30 02:04:40;;;;;;;;;;;10.10;99.90;;;;;;6324782;22;19964;-86
2024/03/30 02:07:07;;;;;;;;;;;10.00;99.90;;;;;;6335520;22;19924;-86
2024/03/30 02:09:33;;;;;;;;;;;10.00;99.90;;;;;;6327368;22;19938;-86
2024/03/30 02:12:01;;;;;;;;;;;10.00;99.90;;;;;;6310836;22;19941;-87
2024/03/30 02:14:27;;;;;;;;;;;10.00;99.90;;;;;;6311820;22;19960;-87
2024/03/30 02:16:53;;;;;;;;;;;9.90;99.90;;;;;;6312336;22;19935;-87
2024/03/30 02:19:19;;;;;;;;;;;9.80;99.90;;;;;;6313000;22;20271;-87
2024/03/30 02:21:46;;;;;;;;;;;9.90;99.90;;;;;;6311369;22;19964;-86
2024/03/30 02:24:13;;;;;;;;;;;10.00;99.90;;;;;;6325048;22;20293;-87
2024/03/30 02:26:40;;;;;;;;;;;10.00;99.90;;;;;;6319684;22;19919;-87
2024/03/30 02:29:06;;;;;;;;;;;9.90;99.90;;;;;;6323524;22;20321;-87
2024/03/30 02:31:33;;;;;;;;;;;9.80;99.90;;;;;;6325848;22;19945;-87
2024/03/30 02:33:59;;;;;;;;;;;9.90;99.90;;;;;;6324696;22;19918;-86
2024/03/30 02:36:26;;;;;;;;;;;10.00;99.90;;;;;;6325806;22;19899;-86
2024/03/30 02:38:52;;;;;;;;;;;10.00;99.90;;;;;;6328077;22;19946;-87
2024/03/30 02:41:20;;;;;;;;;;;10.00;99.90;;;;;;6332919;22;19899;-85
2024/03/30 02:43:45;;;;;;;;;;;9.90;99.90;;;;;;6331150;22;19962;-86
2024/03/30 02:46:12;;;;;;;;;;;9.90;99.90;;;;;;6317801;22;19915;-87
2024/03/30 02:48:38;;;;;;;;;;;9.90;99.90;;;;;;6312321;22;20018;-87
2024/03/30 02:51:04;;;;;;;;;;;9.90;99.90;;;;;;6311293;22;19922;-87
2024/03/30 02:53:30;;;;;;;;;;;9.80;99.90;;;;;;6310579;22;19958;-87
2024/03/30 02:55:57;;;;;;;;;;;9.80;99.90;;;;;;6311267;22;20386;-87
2024/03/30 02:58:24;;;;;;;;;;;9.80;99.90;;;;;;6322560;22;19948;-87
2024/03/30 03:00:50;;;;;;;;;;;9.80;99.90;;;;;;6336249;22;19959;-86
2024/03/30 03:03:16;;;;;;;;;;;9.80;99.90;;;;;;6337113;22;19928;-86
2024/03/30 03:05:43;;;;;;;;;;;9.80;99.90;;;;;;6328791;22;19919;-86
2024/03/30 03:08:09;;;;;;;;;;;9.80;99.90;;;;;;6311255;22;19988;-87
2024/03/30 03:10:35;;;;;;;;;;;9.70;99.90;;;;;;6310386;22;19980;-87
2024/03/30 03:13:03;;;;;;;;;;;9.50;99.90;;;;;;6317173;22;19960;-87
2024/03/30 03:15:30;;;;;;;;;;;9.50;99.90;;;;;;6318720;22;19957;-87
2024/03/30 03:17:56;;;;;;;;;;;9.60;99.90;;;;;;6310315;22;19937;-87
2024/03/30 03:20:22;;;;;;;;;;;9.60;99.90;;;;;;6322217;22;19938;-86
2024/03/30 03:22:49;;;;;;;;;;;9.60;99.90;;;;;;6336758;22;19925;-86
2024/03/30 03:25:14;;;;;;;;;;;9.40;99.90;;;;;;6329109;22;19926;-86
2024/03/30 03:27:41;;;;;;;;;;;9.40;99.90;;;;;;6336357;22;19918;-86
2024/03/30 03:30:07;;;;;;;;;;;9.30;99.90;;;;;;6336601;22;19903;-85
2024/03/30 03:32:35;;;;;;;;;;;9.50;99.90;;;;;;6326197;22;19954;-87
2024/03/30 03:35:00;;;;;;;;;;;9.50;99.90;;;;;;6313637;22;19980;-87
2024/03/30 03:37:27;;;;;;;;;;;9.60;99.90;;;;;;6311445;22;19949;-87
2024/03/30 03:39:53;;;;;;;;;;;9.60;99.90;;;;;;6311453;22;19974;-87
2024/03/30 03:42:19;;;;;;;;;;;9.60;88.90;;;;;;6318283;22;19929;-87
2024/03/30 03:44:45;;;;;;;;;;;9.60;21.60;;;;;;6320423;22;19959;-87
2024/03/30 03:47:12;;;;;;;;;;;9.50;73.30;;;;;;6335377;22;19944;-87
2024/03/30 03:49:39;;;;;;;;;;;9.50;99.90;;;;;;6334949;22;19944;-86
2024/03/30 03:52:06;;;;;;;;;;;9.40;99.90;;;;;;6323186;22;19955;-87
2024/03/30 03:54:31;;;;;;;;;;;9.40;99.90;;;;;;6310430;22;20288;-87
2024/03/30 03:56:58;;;;;;;;;;;9.40;99.90;;;;;;6309991;22;19929;-86
2024/03/30 03:59:24;;;;;;;;;;;9.30;99.90;;;;;;6283226;22;19978;-87
2024/03/30 04:01:50;;;;;;;;;;;9.40;99.90;;;;;;6310593;22;19962;-87
2024/03/30 04:04:16;;;;;;;;;;;9.30;99.90;;;;;;6312649;22;19976;-87
2024/03/30 04:06:44;;;;;;;;;;;9.20;99.90;;;;;;6313450;22;19955;-86
2024/03/30 04:09:10;;;;;;;;;;;9.10;99.90;;;;;;6312149;22;19923;-87
2024/03/30 04:11:37;;;;;;;;;;;9.20;99.90;;;;;;6311278;22;19933;-87
2024/03/30 04:14:03;;;;;;;;;;;9.20;99.90;;;;;;6309828;22;19919;-86
2024/03/30 04:16:29;;;;;;;;;;;9.10;99.90;;;;;;6310617;22;19985;-87
2024/03/30 04:18:55;;;;;;;;;;;9.20;99.90;;;;;;6310323;22;19919;-87
2024/03/30 04:21:22;;;;;;;;;;;9.30;99.90;;;;;;6312990;22;20319;-87
2024/03/30 04:23:50;;;;;;;;;;;9.30;69.40;;;;;;6312939;22;19960;-85
2024/03/30 04:26:18;;;;;;;;;;;9.20;1.00;;;;;;6310487;22;19983;-87
2024/03/30 04:28:44;;;;;;;;;;;9.20;1.00;;;;;;6317026;22;19959;-87
2024/03/30 04:31:10;;;;;;;;;;;9.20;1.00;;;;;;6311971;22;20348;-87
2024/03/30 04:33:36;;;;;;;;;;;9.20;1.00;;;;;;6311224;22;19946;-87
2024/03/30 04:36:04;;;;;;;;;;;9.20;99.90;;;;;;6312982;22;19953;-87
2024/03/30 04:38:31;;;;;;;;;;;9.20;99.90;;;;;;6337183;22;19925;-85
2024/03/30 04:40:58;;;;;;;;;;;9.20;12.80;;;;;;6334096;22;20359;-86
2024/03/30 04:43:25;;;;;;;;;;;9.20;1.00;;;;;;6315226;22;19919;-86
2024/03/30 04:45:51;;;;;;;;;;;9.20;1.00;;;;;;6315172;22;20020;-87
2024/03/30 04:48:18;;;;;;;;;;;9.20;1.00;;;;;;6313024;22;19934;-87
2024/03/30 04:50:44;;;;;;;;;;;9.10;1.00;;;;;;6314342;22;20029;-86
2024/03/30 04:53:10;;;;;;;;;;;9.00;99.90;;;;;;6314263;22;19923;-87
2024/03/30 04:55:36;;;;;;;;;;;9.00;99.90;;;;;;6313812;22;19980;-86
2024/03/30 04:58:04;;;;;;;;;;;9.00;99.90;;;;;;6314965;22;19915;-86
2024/03/30 05:00:33;;;;;;;;;;;9.10;99.90;;;;;;6315067;22;19941;-86
2024/03/30 05:02:59;;;;;;;;;;;9.10;1.00;;;;;;6320613;22;19953;-86
2024/03/30 05:05:25;;;;;;;;;;;9.10;1.00;;;;;;6315566;22;19953;-85
2024/03/30 05:07:52;;;;;;;;;;;9.00;99.90;;;;;;6315189;22;19983;-86
2024/03/30 05:10:17;;;;;;;;;;;9.10;99.90;;;;;;6314426;22;20410;-86
2024/03/30 05:12:44;;;;;;;;;;;9.10;1.00;;;;;;6317525;22;19934;-87
2024/03/30 05:15:11;;;;;;;;;;;9.30;1.00;;;;;;6314888;22;19923;-86
2024/03/30 05:17:38;;;;;;;;;;;9.30;1.00;;;;;;6315235;22;19940;-87
2024/03/30 05:22:49;;;;;;;;;;;9.20;1.00;;;;;;6338492;22;19909;-84
2024/03/30 05:25:15;;;;;;;;;;;9.30;1.00;;;;;;6338410;22;19937;-84
2024/03/30 05:27:42;;;;;;;;;;;9.40;1.00;;;;;;6338433;22;19909;-83
2024/03/30 05:30:09;;;;;;;;;;;9.50;99.90;;;;;;6337818;22;19943;-85
2024/03/30 05:32:36;;;;;;;;;;;9.50;99.90;;;;;;6324657;22;19959;-86
2024/03/30 05:35:02;;;;;;;;;;;9.50;1.00;;;;;;6316512;22;19931;-87
2024/03/30 05:37:28;;;;;;;;;;;9.60;99.90;;;;;;6314194;22;19994;-87
2024/03/30 05:39:55;;;;;;;;;;;9.60;99.90;;;;;;6325773;22;19940;-86
2024/03/30 05:42:20;;;;;;;;;;;9.70;1.00;;;;;;6330087;22;19923;-87
2024/03/30 05:44:47;;;;;;;;;;;9.70;1.00;;;;;;6313072;22;20380;-87
2024/03/30 05:47:13;;;;;;;;;;;9.70;1.00;;;;;;6313046;22;19957;-87
2024/03/30 05:49:41;;;;;;;;;;;9.80;1.00;;;;;;6313623;22;19915;-87
2024/03/30 05:52:07;;;;;;;;;;;9.80;1.00;;;;;;6318814;22;19921;-87
2024/03/30 09:29:01;;;;;;;;;;;15.60;1.00;;;;;;6319832;22;19957;-87
2024/03/30 09:31:27;;;;;;;;;;;15.80;1.00;;;;;;6318477;22;19923;-87
2024/03/30 09:33:54;;;;;;;;;;;15.90;1.00;;;;;;6315254;22;19987;-87
2024/03/30 09:36:20;;;;;;;;;;;16.00;1.00;;;;;;6315638;22;19957;-87
2024/03/30 09:38:46;;;;;;;;;;;16.10;1.00;;;;;;6318678;22;20044;-85
2024/03/30 09:41:14;;;;;;;;;;;16.10;1.00;;;;;;6316405;22;19941;-87
2024/03/30 09:43:41;;;;;;;;;;;16.10;1.00;;;;;;6327867;22;19949;-85
2024/03/30 09:46:08;;;;;;;;;;;16.10;1.00;;;;;;6323933;22;20349;-86
2024/03/30 09:48:37;;;;;;;;;;;16.30;1.00;;;;;;6325051;22;19957;-86
2024/03/30 09:51:04;;;;;;;;;;;16.50;1.00;;;;;;6324268;22;19983;-86
2024/03/30 09:53:32;;;;;;;;;;;16.60;1.00;;;;;;6320453;22;19957;-86
2024/03/30 09:55:58;;;;;;;;;;;16.70;1.00;;;;;;6318467;22;19937;-86
2024/03/30 09:58:25;;;;;;;;;;;16.90;1.00;;;;;;6317359;22;19922;-86
2024/03/30 10:00:51;;;;;;;;;;;16.90;1.00;;;;;;6318677;22;19946;-86
2024/03/30 10:03:19;;;;;;;;;;;17.10;1.00;;;;;;6318579;22;19935;-83
2024/03/30 10:05:46;;;;;;;;;;;17.30;1.00;;;;;;6315184;22;19973;-82
2024/03/30 10:08:14;;;;;;;;;;;17.40;1.00;;;;;;6316640;22;19914;-82
2024/03/30 10:10:41;;;;;;;;;;;17.40;1.00;;;;;;6315518;22;19979;-82
2024/03/30 10:13:11;;;;;;;;;;;17.50;1.00;;;;;;6316431;22;20002;-82
2024/03/30 10:15:38;;;;;;;;;;;17.50;1.00;;;;;;6315719;22;19955;-82
2024/03/30 10:18:06;;;;;;;;;;;17.60;1.00;;;;;;6316121;22;19994;-82
2024/03/30 10:20:34;;;;;;;;;;;17.70;1.00;;;;;;6315858;22;19957;-83
2024/03/30 10:23:00;;;;;;;;;;;17.70;1.00;;;;;;6315738;22;19957;-84
2024/03/30 10:25:26;;;;;;;;;;;17.70;99.90;;;;;;6315371;22;19953;-83
2024/03/30 10:27:53;;;;;;;;;;;17.90;1.00;;;;;;6317541;22;19954;-83
2024/03/30 10:30:20;;;;;;;;;;;17.90;1.00;;;;;;6325685;22;19957;-85
2024/03/30 10:32:46;;;;;;;;;;;18.10;1.00;;;;;;6326700;22;19957;-81
2024/03/30 10:35:14;;;;;;;;;;;18.10;99.90;;;;;;6323596;22;19965;-82
2024/03/30 10:37:41;;;;;;;;;;;18.20;1.00;;;;;;6324554;22;19925;-80
2024/03/30 10:40:09;;;;;;;;;;;18.30;99.90;;;;;;6318861;22;19937;-81
2024/03/30 10:42:35;;;;;;;;;;;18.30;99.90;;;;;;6317334;22;19943;-81
2024/03/30 10:45:02;;;;;;;;;;;18.40;99.90;;;;;;6314832;22;20238;-81
2024/03/30 10:47:28;;;;;;;;;;;18.50;99.90;;;;;;6319212;22;19975;-80
2024/03/30 10:49:55;;;;;;;;;;;18.60;99.90;;;;;;6327235;22;20003;-80
2024/03/30 10:52:21;;;;;;;;;;;18.60;99.90;;;;;;6316419;22;19926;-83
2024/03/30 10:54:49;;;;;;;;;;;18.80;99.90;;;;;;6313674;22;19919;-80
2024/03/30 10:57:15;;;;;;;;;;;18.90;99.90;;;;;;6313060;22;19965;-82
2024/03/30 10:59:45;;;;;;;;;;;19.00;99.90;;;;;;6313000;22;19933;-81
2024/03/30 11:02:14;;;;;;;;;;;19.10;99.90;;;;;;6312439;22;19943;-81
2024/03/30 11:04:42;;;;;;;;;;;19.10;99.90;;;;;;6312512;22;19933;-81
2024/03/30 11:07:08;;;;;;;;;;;19.20;99.90;;;;;;6313297;22;19959;-80
2024/03/30 11:09:38;;;;;;;;;;;19.20;99.90;;;;;;6313378;22;19922;-81
2024/03/30 11:12:06;;;;;;;;;;;19.30;99.90;;;;;;6313673;22;19929;-81
2024/03/30 11:14:33;;;;;;;;;;;19.30;99.90;;;;;;6313181;22;19919;-80
2024/03/30 11:16:59;;;;;;;;;;;19.40;99.90;;;;;;6314535;22;19997;-80
2024/03/30 11:19:30;;;;;;;;;;;19.40;99.90;;;;;;6314273;22;20363;-81
2024/03/30 11:22:02;;;;;;;;;;;19.60;99.90;;;;;;6314409;22;19933;-81
2024/03/30 11:24:31;;;;;;;;;;;19.60;99.90;;;;;;6313275;22;20004;-81
2024/03/30 11:27:00;;;;;;;;;;;19.70;99.90;;;;;;6313305;22;19976;-81
2024/03/30 11:29:34;;;;;;;;;;;19.70;99.90;;;;;;6313880;22;19946;-81
2024/03/30 11:32:07;;;;;;;;;;;19.70;99.90;;;;;;6312644;22;19983;-82
2024/03/30 11:34:41;;;;;;;;;;;19.70;99.90;;;;;;6312252;22;19971;-80
2024/03/30 11:37:09;;;;;;;;;;;19.80;99.90;;;;;;6312076;22;20007;-80
2024/03/30 11:39:41;;;;;;;;;;;19.90;99.90;;;;;;6313336;22;20249;-82
2024/03/30 11:42:09;;;;;;;;;;;19.90;99.90;;;;;;6314750;22;19980;-81
2024/03/30 11:44:38;;;;;;;;;;;20.00;99.90;;;;;;6315698;22;19957;-81
2024/03/30 11:47:04;;;;;;;;;;;20.10;99.90;;;;;;6315120;22;20391;-79
2024/03/30 11:49:31;;;;;;;;;;;20.10;99.90;;;;;;6315257;22;20037;-81
2024/03/30 11:51:58;;;;;;;;;;;20.10;99.90;;;;;;6314699;22;19919;-82
2024/03/30 11:54:26;;;;;;;;;;;20.20;99.90;;;;;;6314019;22;19919;-80
2024/03/30 11:57:01;;;;;;;;;;;20.30;99.90;;;;;;6314269;22;19933;-80
2024/03/30 11:59:28;;;;;;;;;;;20.20;99.90;;;;;;6313670;22;19954;-80
2024/03/30 12:01:55;;;;;;;;;;;20.30;99.90;;;;;;6313182;22;19964;-80
2024/03/30 12:04:22;;;;;;;;;;;20.30;99.90;;;;;;6315872;22;19968;-80
2024/03/30 12:06:52;;;;;;;;;;;20.30;99.90;;;;;;6314699;22;19919;-81
2024/03/30 12:09:20;;;;;;;;;;;20.30;99.90;;;;;;6315927;22;19931;-82
2024/03/30 12:11:52;;;;;;;;;;;20.30;99.90;;;;;;6320924;22;19937;-81
2024/03/30 12:14:19;;;;;;;;;;;20.50;99.90;;;;;;6322885;22;19965;-80
2024/03/30 12:16:46;;;;;;;;;;;20.50;99.90;;;;;;6326786;22;19946;-80
2024/03/30 12:19:14;;;;;;;;;;;20.70;99.90;;;;;;6324092;22;20337;-81
2024/03/30 12:21:39;;;;;;;;;;;20.70;99.90;;;;;;6316906;22;19959;-82
2024/03/30 12:24:07;;;;;;;;;;;20.70;99.90;;;;;;6324104;22;19903;-81
2024/03/30 12:26:33;;;;;;;;;;;20.70;99.90;;;;;;6338205;22;19967;-80
2024/03/30 12:29:02;;;;;;;;;;;20.80;99.90;;;;;;6328295;22;19955;-82
2024/03/30 12:31:31;;;;;;;;;;;20.90;99.90;;;;;;6337337;22;19944;-79
2024/03/30 12:33:58;;;;;;;;;;;21.00;99.90;;;;;;6335439;22;19983;-82
2024/03/30 12:36:25;;;;;;;;;;;21.10;99.90;;;;;;6319649;22;20414;-85
2024/03/30 12:38:52;;;;;;;;;;;21.00;99.90;;;;;;6318529;22;20350;-83
2024/03/30 12:41:17;;;;;;;;;;;21.10;99.90;;;;;;6318817;22;19943;-83
2024/03/30 12:43:44;;;;;;;;;;;21.20;99.90;;;;;;6317842;22;19971;-83
2024/03/30 12:46:10;;;;;;;;;;;21.20;99.90;;;;;;6318521;22;19940;-85
2024/03/30 12:48:36;;;;;;;;;;;21.20;99.90;;;;;;6329606;22;19973;-84
2024/03/30 12:51:02;;;;;;;;;;;21.30;99.90;;;;;;6336730;22;19934;-82
2024/03/30 12:53:31;;;;;;;;;;;21.30;99.90;;;;;;6335949;22;19922;-83
2024/03/30 12:55:57;;;;;;;47.38;11.68;;;21.30;99.90;;;;;;6327979;22;20410;-84
2024/03/30 12:58:24;;;;;;;72.80;12.33;;;21.40;99.90;;;;;;6319867;22;20267;-84
2024/03/30 13:00:50;;;;;;;44.93;11.80;;;21.40;99.90;;;;;;6323032;22;20456;-83
2024/03/30 13:03:17;;;;;;;52.47;12.30;;;21.40;99.90;;;;;;6331928;22;20396;-84
2024/03/30 13:05:43;;;;;;;52.87;11.30;;;21.40;99.90;;;;;;6324614;22;20411;-84
2024/03/30 13:08:13;;;;;;;52.50;10.47;;;21.40;99.90;;;;;;6328623;22;20439;-82
2024/03/30 13:10:41;;;;;;;41.27;10.27;;;21.40;99.90;;;;;;6320207;22;20435;-82
2024/03/30 13:13:10;;;;;;;42.57;14.13;;;21.40;99.90;;;;;;6318442;22;20714;-82
2024/03/30 13:15:38;;;;;;;43.60;12.70;;;21.40;99.90;;;;;;6325744;22;20443;-81
2024/03/30 13:18:08;;;;;;;67.07;15.50;;;21.40;99.90;;;;;;6328191;22;20510;-80
2024/03/30 13:20:41;;;;;;;61.90;12.67;;;21.50;99.90;;;;;;6334506;22;20761;-81
2024/03/30 13:23:10;;;;;;;45.97;9.27;;;21.50;99.90;;;;;;6305926;22;20463;-81
2024/03/30 13:25:36;;;;;;;64.82;11.70;;;21.60;99.90;;;;;;6327624;22;20396;-81
2024/03/30 13:28:05;;;;;;;42.63;11.20;;;21.50;99.90;;;;;;6326569;22;20197;-81
2024/03/30 13:30:32;;;;;;;47.30;11.00;;;21.60;99.90;;;;;;6329893;22;20410;-81
2024/03/30 13:32:58;;;;;;;50.77;11.73;;;21.60;99.90;;;;;;6328534;22;20411;-81
2024/03/30 13:35:25;;;;;;;64.63;14.70;;;21.60;99.90;;;;;;6324355;22;20431;-84
2024/03/30 13:37:51;;;;;;;35.33;12.30;;;21.60;99.90;;;;;;6318216;22;20490;-83
2024/03/30 13:40:18;;;;;;;44.33;11.00;;;21.70;99.90;;;;;;6322954;22;20395;-83
2024/03/30 13:42:44;;;;;;;49.33;12.37;;;21.70;99.90;;;;;;6324235;22;20177;-80
2024/03/30 13:45:12;;;;;;;45.07;12.03;;;21.80;99.90;;;;;;6326037;22;20395;-81
2024/03/30 13:47:38;;;;;;;41.67;11.33;;;21.70;99.90;;;;;;6322505;22;20197;-83
2024/03/30 13:50:06;;;;;;;41.50;9.67;;;21.70;99.90;;;;;;6320234;22;20399;-85
2024/03/30 13:52:32;;;;;;;44.70;11.00;;;21.50;99.90;;;;;;6322873;22;20411;-83
2024/03/30 13:54:59;;;;;;;52.87;13.43;;;21.40;99.90;;;;;;6327688;22;20431;-84
2024/03/30 13:57:25;;;;;;;49.70;12.80;;;21.30;99.90;;;;;;6324734;22;20423;-83
2024/03/30 13:59:52;;;;;;;35.57;10.40;;;21.30;99.90;;;;;;6327198;22;20396;-81
2024/03/30 14:02:19;;;;;;;50.30;9.40;;;21.20;99.90;;;;;;6324998;22;20396;-83
2024/03/30 14:04:46;;;;;;;47.90;11.60;;;21.20;99.90;;;;;;6322327;22;20407;-84
2024/03/30 14:07:13;;;;;;;41.90;10.97;;;21.20;99.90;;;;;;6320528;22;20415;-83
2024/03/30 14:09:40;;;;;;;56.07;11.90;;;21.10;99.90;;;;;;6322765;22;20411;-82
2024/03/30 14:12:06;;;;;;;44.30;11.70;;;21.20;99.90;;;;;;6328847;22;20411;-81
2024/03/30 14:14:33;;;;;;;42.83;12.37;;;21.20;99.90;;;;;;6336262;22;20427;-82
2024/03/30 14:17:01;;;;;;;41.73;11.10;;;21.20;99.90;;;;;;6334856;22;20383;-83
2024/03/30 14:19:29;;;;;;;44.00;10.97;;;21.20;99.90;;;;;;6324306;22;20414;-83
2024/03/30 14:21:55;;;;;;;44.30;10.17;;;21.20;99.90;;;;;;6318895;22;20404;-84
2024/03/30 14:24:22;;;;;;;32.07;8.40;;;21.20;99.90;;;;;;6323112;22;20455;-82
2024/03/30 14:26:48;;;;;;;51.40;11.93;;;21.20;99.90;;;;;;6335354;22;20403;-83
2024/03/30 14:29:15;;;;;;;35.80;11.10;;;21.20;99.90;;;;;;6332684;22;20423;-84
2024/03/30 14:31:41;;;;;;;36.73;10.07;;;21.30;99.90;;;;;;6324111;22;20403;-83
2024/03/30 14:34:08;;;;;;;43.10;11.93;;;21.30;99.90;;;;;;6324198;22;20394;-83
2024/03/30 14:36:36;;;;;;;35.37;9.83;;;21.20;99.90;;;;;;6320933;22;20177;-83
2024/03/30 14:39:04;;;;;;;53.70;14.47;;;21.10;99.90;;;;;;6322221;22;20474;-82
2024/03/30 14:41:30;;;;;;;57.03;11.63;;;21.10;99.90;;;;;;6321858;22;20410;-83
2024/03/30 14:43:57;;;;;;;37.23;9.80;;;21.10;99.90;;;;;;6321126;22;20399;-83
2024/03/30 14:46:25;;;;;;;43.50;11.43;;;21.00;99.90;;;;;;6316745;22;20739;-83
2024/03/30 14:48:52;;;;;;;51.30;11.23;;;21.00;99.90;;;;;;6316691;22;20426;-84
2024/03/30 14:51:18;;;;;;;41.73;10.50;;;21.00;99.90;;;;;;6316875;22;20486;-83
2024/03/30 14:53:48;;;;;;;43.03;10.70;;;21.00;99.90;;;;;;6324695;22;20395;-83
2024/03/30 14:56:14;;;;;;;40.23;10.80;;;21.00;99.90;;;;;;6322719;22;20439;-84
2024/03/30 14:58:41;;;;;;;39.93;11.07;;;20.90;99.90;;;;;;6321041;22;20446;-84
2024/03/30 15:01:09;;;;;;;43.53;11.20;;;20.80;99.90;;;;;;6317963;22;20408;-84
2024/03/30 15:03:42;;;;;;;50.73;12.37;;;20.80;99.90;;;;;;6320369;22;20403;-84
2024/03/30 15:06:09;;;;;;;39.53;10.10;;;20.80;99.90;;;;;;6318462;22;20384;-83
2024/03/30 15:08:38;;;;;;;35.87;9.50;;;20.80;99.90;;;;;;6286008;22;21659;-83
2024/03/30 15:11:06;;;;;;;46.83;13.00;;;20.80;99.90;;;;;;6287902;22;20496;-83
2024/03/30 15:13:34;;;;;;;35.27;10.93;;;20.80;99.90;;;;;;6286997;22;20404;-83
2024/03/30 15:16:00;;;;;;;46.27;11.10;;;20.80;99.90;;;;;;6284847;22;21015;-85
2024/03/30 15:18:27;;;;;;;46.07;11.43;;;20.80;99.90;;;;;;6284092;22;20428;-83
2024/03/30 15:20:53;;;;;;;46.10;11.77;;;20.70;99.90;;;;;;6285758;22;20178;-84
2024/03/30 15:23:20;;;;;;;48.83;11.13;;;20.70;99.90;;;;;;6287254;22;20568;-83
2024/03/30 15:25:46;;;;;;;40.80;10.13;;;20.60;99.90;;;;;;6287772;22;20416;-83
2024/03/30 15:28:14;;;;;;;44.37;11.43;;;20.60;99.90;;;;;;6286169;22;20424;-84
2024/03/30 15:33:26;;;;;;;40.07;10.83;;;20.50;99.90;;;;;;6294275;22;20455;-83
2024/03/30 15:35:53;;;;;;;40.47;9.97;;;20.40;99.90;;;;;;6293305;22;20447;-83
2024/03/30 15:38:22;;;;;;;39.20;10.97;;;20.40;99.90;;;;;;6293178;22;20436;-83
2024/03/30 15:40:48;;;;;;;38.47;11.23;;;20.40;99.90;;;;;;6287968;22;20409;-84
2024/03/30 15:43:17;;;;;;;42.67;11.73;;;20.40;99.90;;;;;;6285832;22;20415;-84
2024/03/30 15:45:44;;;;;;;44.57;13.50;;;20.40;99.90;;;;;;6292742;22;20408;-83
2024/03/30 15:48:11;;;;;;;39.10;12.67;;;20.30;99.90;;;;;;6304215;22;20440;-81
2024/03/30 15:50:36;;;;;;;52.93;11.00;;;20.30;99.90;;;;;;6299327;22;20409;-83
2024/03/30 15:53:04;;;;;;;41.90;11.20;;;20.20;99.90;;;;;;6286357;22;20407;-83
2024/03/30 15:55:31;;;;;;;33.80;11.20;;;20.20;99.90;;;;;;6289705;22;20198;-83
2024/03/30 15:57:56;;;;;;;65.73;12.13;;;20.10;99.90;;;;;;6290353;22;20922;-82
2024/03/30 16:00:25;;;;;;;48.23;10.50;;;20.10;99.90;;;;;;6290355;22;20430;-83
2024/03/30 16:02:51;;;;;;;46.77;18.70;;;20.00;99.90;;;;;;6293236;22;20475;-83
2024/03/30 16:05:20;;;;;;;38.93;9.90;;;20.00;99.90;;;;;;6293802;22;20465;-84
2024/03/30 16:07:46;;;;;;;41.93;10.40;;;19.90;99.90;;;;;;6291352;22;20424;-84
2024/03/30 16:10:14;;;;;;;39.20;10.33;;;19.90;99.90;;;;;;6288044;22;20726;-83
2024/03/30 16:12:40;;;;;;;40.30;10.77;;;19.90;99.90;;;;;;6285830;22;20400;-83
2024/03/30 16:15:07;;;;;;;52.30;12.57;;;19.80;99.90;;;;;;6287203;22;20444;-83
2024/03/30 16:17:35;;;;;;;46.53;13.67;;;19.80;99.90;;;;;;6291206;22;20456;-83
2024/03/30 16:20:04;;;;;;;44.80;11.70;;;19.70;99.90;;;;;;6285762;22;20411;-83
2024/03/30 16:22:32;;;;;;;40.30;9.93;;;19.70;99.90;;;;;;6296298;22;20532;-83
2024/03/30 16:25:00;;;;;;;33.77;10.87;;;19.70;99.90;;;;;;6301284;22;20423;-84
2024/03/30 16:27:26;;;;;;;51.63;12.53;;;19.60;99.90;;;;;;6287010;22;20433;-84
2024/03/30 16:29:53;;;;;;;45.30;10.60;;;19.60;99.90;;;;;;6286684;22;20404;-84
2024/03/30 16:32:18;;;;;;;41.33;10.73;;;19.50;99.90;;;;;;6289414;22;20411;-84
2024/03/30 16:34:47;;;;;;;42.80;11.37;;;19.50;99.90;;;;;;6286821;22;20435;-84
2024/03/30 16:37:13;;;;;;;54.33;11.87;;;19.50;99.90;;;;;;6289078;22;20430;-84
2024/03/30 16:39:40;;;;;;;46.43;10.97;;;19.40;99.90;;;;;;6290120;22;20384;-83
2024/03/30 16:42:06;;;;;;;37.93;10.47;;;19.40;99.90;;;;;;6292150;22;20944;-84
2024/03/30 16:44:33;;;;;;;48.00;12.43;;;19.40;99.90;;;;;;6288252;22;20359;-82
2024/03/30 16:47:00;;;;;;;59.23;18.47;;;19.40;99.90;;;;;;6288079;22;20408;-83
2024/03/30 16:49:27;;;;;;;51.33;14.73;;;19.30;99.90;;;;;;6287190;22;20424;-84
2024/03/30 16:51:54;;;;;;;44.63;13.17;;;19.30;99.90;;;;;;6286169;22;20403;-84
2024/03/30 16:54:21;;;;;;;52.03;14.20;;;19.20;99.90;;;;;;6294917;22;20406;-83
2024/03/30 16:56:47;;;;;;;38.97;12.63;;;19.20;99.90;;;;;;6288588;22;20801;-83
2024/03/30 16:59:14;;;;;;;47.50;15.43;;;19.10;99.90;;;;;;6286484;22;20458;-84
2024/03/30 17:01:40;;;;;;;41.30;13.63;;;19.10;99.90;;;;;;6286049;22;20401;-83
2024/03/30 17:04:07;;;;;;;66.37;14.03;;;19.00;99.90;;;;;;6288681;22;20430;-85
2024/03/30 17:06:33;;;;;;;46.97;13.40;;;19.00;99.90;;;;;;6287090;22;20376;-83
2024/03/30 17:09:02;;;;;;;47.17;13.27;;;19.00;99.90;;;;;;6287519;22;20503;-82
2024/03/30 17:11:29;;;;;;;49.77;14.97;;;19.00;99.90;;;;;;6286789;22;20430;-82
2024/03/30 17:13:56;;;;;;;54.30;13.80;;;18.90;99.90;;;;;;6298560;22;20406;-82
2024/03/30 17:16:22;;;;;;;46.13;15.03;;;18.90;99.90;;;;;;6289083;22;20542;-83
2024/03/30 17:18:49;;;;;;;51.40;14.50;;;18.90;99.90;;;;;;6290424;22;20422;-83
2024/03/30 17:21:15;;;;;;;56.60;17.13;;;18.80;99.90;;;;;;6294400;22;20394;-83